sensor_id;sensor_type;location;lat;lon;timestamp;P1;durP1;ratioP1;P2;durP2;ratioP2
27313;SDS011;14800;48.174;9.798;2024-02-23T00:02:04;1.42;;;0.35;;
27313;SDS011;14800;48.174;9.798;2024-02-23T00:04:30;0.22;;;0.15;;
27313;SDS011;14800;48.174;9.798;2024-02-23T00:06:56;0.77;;;0.10;;
27313;SDS011;14800;48.174;9.798;2024-02-23T00:09:21;0.93;;;0.30;;
27313;SDS011;14800;48.174;9.798;2024-02-23T00:11:47;0.73;;;0.10;;
27313;SDS011;14800;48.174;9.798;2024-02-23T00:14:15;0.75;;;0.10;;
27313;SDS011;14800;48.174;9.798;2024-02-23T00:16:44;0.50;;;0.15;;
27313;SDS011;14800;48.174;9.798;2024-02-23T00:19:09;0.93;;;0.10;;
27313;SDS011;14800;48.174;9.798;2024-02-23T00:21:36;0.82;;;0.10;;
27313;SDS011;14800;48.174;9.798;2024-02-23T00:24:01;0.90;;;0.15;;
27313;SDS011;14800;48.174;9.798;2024-02-23T00:26:27;0.40;;;0.10;;
27313;SDS011;14800;48.174;9.798;2024-02-23T00:28:54;0.50;;;0.10;;
27313;SDS011;14800;48.174;9.798;2024-02-23T00:31:20;0.73;;;0.10;;
27313;SDS011;14800;48.174;9.798;2024-02-23T00:33:46;0.50;;;0.13;;
27313;SDS011;14800;48.174;9.798;2024-02-23T00:36:11;1.58;;;0.20;;
27313;SDS011;14800;48.174;9.798;2024-02-23T00:38:37;0.13;;;0.10;;
27313;SDS011;14800;48.174;9.798;2024-02-23T00:41:03;0.03;;;0.00;;
27313;SDS011;14800;48.174;9.798;2024-02-23T00:43:28;0.40;;;0.10;;
27313;SDS011;14800;48.174;9.798;2024-02-23T00:45:54;0.90;;;0.15;;
27313;SDS011;14800;48.174;9.798;2024-02-23T00:48:20;0.75;;;0.20;;
27313;SDS011;14800;48.174;9.798;2024-02-23T00:50:46;0.38;;;0.10;;
27313;SDS011;14800;48.174;9.798;2024-02-23T00:53:11;0.45;;;0.20;;
27313;SDS011;14800;48.174;9.798;2024-02-23T00:55:37;1.20;;;0.20;;
27313;SDS011;14800;48.174;9.798;2024-02-23T00:58:03;1.05;;;0.10;;
27313;SDS011;14800;48.174;9.798;2024-02-23T01:00:28;0.63;;;0.10;;
27313;SDS011;14800;48.174;9.798;2024-02-23T01:02:54;0.35;;;0.10;;
27313;SDS011;14800;48.174;9.798;2024-02-23T01:05:20;0.20;;;0.10;;
27313;SDS011;14800;48.174;9.798;2024-02-23T01:07:45;0.03;;;0.00;;
27313;SDS011;14800;48.174;9.798;2024-02-23T01:10:11;0.47;;;0.10;;
27313;SDS011;14800;48.174;9.798;2024-02-23T01:12:37;0.30;;;0.00;;
27313;SDS011;14800;48.174;9.798;2024-02-23T01:15:02;0.00;;;0.00;;
27313;SDS011;14800;48.174;9.798;2024-02-23T01:17:28;0.00;;;0.00;;
27313;SDS011;14800;48.174;9.798;2024-02-23T01:19:54;0.57;;;0.00;;
27313;SDS011;14800;48.174;9.798;2024-02-23T01:22:19;0.22;;;0.10;;
27313;SDS011;14800;48.174;9.798;2024-02-23T01:24:45;0.00;;;0.00;;
27313;SDS011;14800;48.174;9.798;2024-02-23T01:27:10;0.30;;;0.00;;
27313;SDS011;14800;48.174;9.798;2024-02-23T01:29:36;0.20;;;0.00;;
27313;SDS011;14800;48.174;9.798;2024-02-23T01:32:02;0.10;;;0.10;;
27313;SDS011;14800;48.174;9.798;2024-02-23T01:34:27;0.00;;;0.00;;
27313;SDS011;14800;48.174;9.798;2024-02-23T01:36:53;0.10;;;0.00;;
27313;SDS011;14800;48.174;9.798;2024-02-23T01:39:18;1.15;;;0.15;;
27313;SDS011;14800;48.174;9.798;2024-02-23T01:41:44;0.40;;;0.00;;
27313;SDS011;14800;48.174;9.798;2024-02-23T01:44:10;0.40;;;0.00;;
27313;SDS011;14800;48.174;9.798;2024-02-23T01:46:36;0.22;;;0.00;;
27313;SDS011;14800;48.174;9.798;2024-02-23T01:49:02;0.00;;;0.00;;
27313;SDS011;14800;48.174;9.798;2024-02-23T01:51:30;0.20;;;0.00;;
27313;SDS011;14800;48.174;9.798;2024-02-23T01:53:56;0.10;;;0.00;;
27313;SDS011;14800;48.174;9.798;2024-02-23T01:56:22;0.00;;;0.00;;
27313;SDS011;14800;48.174;9.798;2024-02-23T01:58:48;0.10;;;0.00;;
27313;SDS011;14800;48.174;9.798;2024-02-23T02:01:14;0.10;;;0.00;;
27313;SDS011;14800;48.174;9.798;2024-02-23T02:03:39;0.00;;;0.00;;
27313;SDS011;14800;48.174;9.798;2024-02-23T02:06:05;0.30;;;0.00;;
27313;SDS011;14800;48.174;9.798;2024-02-23T02:08:32;0.10;;;0.00;;
27313;SDS011;14800;48.174;9.798;2024-02-23T02:10:59;0.00;;;0.00;;
27313;SDS011;14800;48.174;9.798;2024-02-23T02:13:25;0.00;;;0.00;;
27313;SDS011;14800;48.174;9.798;2024-02-23T02:15:50;0.00;;;0.00;;
27313;SDS011;14800;48.174;9.798;2024-02-23T02:18:16;0.00;;;0.00;;
27313;SDS011;14800;48.174;9.798;2024-02-23T02:20:47;0.00;;;0.00;;
27313;SDS011;14800;48.174;9.798;2024-02-23T02:23:17;0.10;;;0.00;;
27313;SDS011;14800;48.174;9.798;2024-02-23T02:25:42;0.10;;;0.00;;
27313;SDS011;14800;48.174;9.798;2024-02-23T02:28:08;0.05;;;0.00;;
27313;SDS011;14800;48.174;9.798;2024-02-23T02:30:33;0.10;;;0.00;;
27313;SDS011;14800;48.174;9.798;2024-02-23T02:32:59;0.00;;;0.00;;
27313;SDS011;14800;48.174;9.798;2024-02-23T02:35:25;0.10;;;0.00;;
27313;SDS011;14800;48.174;9.798;2024-02-23T02:37:50;0.95;;;0.00;;
27313;SDS011;14800;48.174;9.798;2024-02-23T02:40:16;0.00;;;0.00;;
27313;SDS011;14800;48.174;9.798;2024-02-23T02:42:41;0.10;;;0.00;;
27313;SDS011;14800;48.174;9.798;2024-02-23T02:45:07;0.10;;;0.00;;
27313;SDS011;14800;48.174;9.798;2024-02-23T02:47:33;0.13;;;0.00;;
27313;SDS011;14800;48.174;9.798;2024-02-23T02:49:58;0.00;;;0.00;;
27313;SDS011;14800;48.174;9.798;2024-02-23T02:52:24;0.10;;;0.00;;
27313;SDS011;14800;48.174;9.798;2024-02-23T02:54:50;0.03;;;0.00;;
27313;SDS011;14800;48.174;9.798;2024-02-23T02:57:15;0.00;;;0.00;;
27313;SDS011;14800;48.174;9.798;2024-02-23T02:59:41;0.00;;;0.00;;
27313;SDS011;14800;48.174;9.798;2024-02-23T03:02:07;0.10;;;0.00;;
27313;SDS011;14800;48.174;9.798;2024-02-23T03:04:33;0.00;;;0.00;;
27313;SDS011;14800;48.174;9.798;2024-02-23T03:06:58;0.13;;;0.03;;
27313;SDS011;14800;48.174;9.798;2024-02-23T03:09:24;0.03;;;0.00;;
27313;SDS011;14800;48.174;9.798;2024-02-23T03:11:49;0.00;;;0.00;;
27313;SDS011;14800;48.174;9.798;2024-02-23T03:14:15;0.00;;;0.00;;
27313;SDS011;14800;48.174;9.798;2024-02-23T03:16:43;0.63;;;0.10;;
27313;SDS011;14800;48.174;9.798;2024-02-23T03:19:08;0.10;;;0.00;;
27313;SDS011;14800;48.174;9.798;2024-02-23T03:21:34;0.60;;;0.00;;
27313;SDS011;14800;48.174;9.798;2024-02-23T03:24:00;0.82;;;0.10;;
27313;SDS011;14800;48.174;9.798;2024-02-23T03:26:25;0.20;;;0.10;;
27313;SDS011;14800;48.174;9.798;2024-02-23T03:28:51;1.67;;;0.10;;
27313;SDS011;14800;48.174;9.798;2024-02-23T03:31:16;0.52;;;0.20;;
27313;SDS011;14800;48.174;9.798;2024-02-23T03:33:42;0.30;;;0.10;;
27313;SDS011;14800;48.174;9.798;2024-02-23T03:36:07;2.08;;;0.10;;
27313;SDS011;14800;48.174;9.798;2024-02-23T03:38:33;0.68;;;0.20;;
27313;SDS011;14800;48.174;9.798;2024-02-23T03:40:59;2.40;;;0.20;;
27313;SDS011;14800;48.174;9.798;2024-02-23T03:43:25;0.20;;;0.03;;
27313;SDS011;14800;48.174;9.798;2024-02-23T03:45:52;0.20;;;0.10;;
27313;SDS011;14800;48.174;9.798;2024-02-23T03:48:17;1.35;;;0.15;;
27313;SDS011;14800;48.174;9.798;2024-02-23T03:50:43;0.28;;;0.10;;
27313;SDS011;14800;48.174;9.798;2024-02-23T03:53:08;0.50;;;0.00;;
27313;SDS011;14800;48.174;9.798;2024-02-23T03:55:34;0.28;;;0.00;;
27313;SDS011;14800;48.174;9.798;2024-02-23T03:57:59;0.25;;;0.10;;
27313;SDS011;14800;48.174;9.798;2024-02-23T04:00:25;0.93;;;0.00;;
27313;SDS011;14800;48.174;9.798;2024-02-23T04:02:51;1.23;;;0.10;;
27313;SDS011;14800;48.174;9.798;2024-02-23T04:05:17;0.32;;;0.10;;
27313;SDS011;14800;48.174;9.798;2024-02-23T04:07:43;0.20;;;0.10;;
27313;SDS011;14800;48.174;9.798;2024-02-23T04:10:09;1.27;;;0.03;;
27313;SDS011;14800;48.174;9.798;2024-02-23T04:12:35;0.10;;;0.00;;
27313;SDS011;14800;48.174;9.798;2024-02-23T04:15:00;1.25;;;0.00;;
27313;SDS011;14800;48.174;9.798;2024-02-23T04:17:26;0.20;;;0.10;;
27313;SDS011;14800;48.174;9.798;2024-02-23T04:19:51;0.08;;;0.00;;
27313;SDS011;14800;48.174;9.798;2024-02-23T04:22:17;0.13;;;0.10;;
27313;SDS011;14800;48.174;9.798;2024-02-23T04:24:44;1.65;;;0.10;;
27313;SDS011;14800;48.174;9.798;2024-02-23T04:27:10;1.02;;;0.10;;
27313;SDS011;14800;48.174;9.798;2024-02-23T04:29:35;0.43;;;0.08;;
27313;SDS011;14800;48.174;9.798;2024-02-23T04:32:01;0.10;;;0.08;;
27313;SDS011;14800;48.174;9.798;2024-02-23T04:34:27;0.10;;;0.00;;
27313;SDS011;14800;48.174;9.798;2024-02-23T04:36:53;0.38;;;0.00;;
27313;SDS011;14800;48.174;9.798;2024-02-23T04:39:19;0.93;;;0.20;;
27313;SDS011;14800;48.174;9.798;2024-02-23T04:41:45;0.40;;;0.10;;
27313;SDS011;14800;48.174;9.798;2024-02-23T04:44:11;0.60;;;0.10;;
27313;SDS011;14800;48.174;9.798;2024-02-23T04:46:36;0.80;;;0.00;;
27313;SDS011;14800;48.174;9.798;2024-02-23T04:49:02;0.85;;;0.13;;
27313;SDS011;14800;48.174;9.798;2024-02-23T04:51:27;2.35;;;0.20;;
27313;SDS011;14800;48.174;9.798;2024-02-23T04:53:53;0.63;;;0.00;;
27313;SDS011;14800;48.174;9.798;2024-02-23T04:56:19;0.80;;;0.50;;
27313;SDS011;14800;48.174;9.798;2024-02-23T04:58:45;1.00;;;0.30;;
27313;SDS011;14800;48.174;9.798;2024-02-23T05:01:11;0.40;;;0.40;;
27313;SDS011;14800;48.174;9.798;2024-02-23T05:03:37;0.98;;;0.88;;
27313;SDS011;14800;48.174;9.798;2024-02-23T05:06:03;0.80;;;0.40;;
27313;SDS011;14800;48.174;9.798;2024-02-23T05:08:30;0.40;;;0.20;;
27313;SDS011;14800;48.174;9.798;2024-02-23T05:10:58;0.32;;;0.25;;
27313;SDS011;14800;48.174;9.798;2024-02-23T05:13:24;0.20;;;0.20;;
27313;SDS011;14800;48.174;9.798;2024-02-23T05:15:50;0.30;;;0.17;;
27313;SDS011;14800;48.174;9.798;2024-02-23T05:18:15;0.40;;;0.30;;
27313;SDS011;14800;48.174;9.798;2024-02-23T05:20:41;0.20;;;0.10;;
27313;SDS011;14800;48.174;9.798;2024-02-23T05:23:06;0.52;;;0.10;;
27313;SDS011;14800;48.174;9.798;2024-02-23T05:25:32;0.68;;;0.30;;
27313;SDS011;14800;48.174;9.798;2024-02-23T05:27:58;0.22;;;0.10;;
27313;SDS011;14800;48.174;9.798;2024-02-23T05:30:23;0.70;;;0.10;;
27313;SDS011;14800;48.174;9.798;2024-02-23T05:32:51;0.47;;;0.00;;
27313;SDS011;14800;48.174;9.798;2024-02-23T05:35:17;0.85;;;0.10;;
27313;SDS011;14800;48.174;9.798;2024-02-23T05:37:42;0.10;;;0.10;;
27313;SDS011;14800;48.174;9.798;2024-02-23T05:40:08;1.83;;;0.40;;
27313;SDS011;14800;48.174;9.798;2024-02-23T05:42:37;0.80;;;0.30;;
27313;SDS011;14800;48.174;9.798;2024-02-23T05:45:03;1.58;;;0.20;;
27313;SDS011;14800;48.174;9.798;2024-02-23T05:47:34;0.30;;;0.10;;
27313;SDS011;14800;48.174;9.798;2024-02-23T05:50:00;0.28;;;0.15;;
27313;SDS011;14800;48.174;9.798;2024-02-23T05:52:28;1.75;;;0.50;;
27313;SDS011;14800;48.174;9.798;2024-02-23T05:54:54;1.10;;;0.30;;
27313;SDS011;14800;48.174;9.798;2024-02-23T05:57:21;1.05;;;0.30;;
27313;SDS011;14800;48.174;9.798;2024-02-23T05:59:46;0.82;;;0.30;;
27313;SDS011;14800;48.174;9.798;2024-02-23T06:02:12;0.70;;;0.30;;
27313;SDS011;14800;48.174;9.798;2024-02-23T06:04:39;1.33;;;0.32;;
27313;SDS011;14800;48.174;9.798;2024-02-23T06:07:05;0.57;;;0.40;;
27313;SDS011;14800;48.174;9.798;2024-02-23T06:09:31;1.23;;;0.40;;
27313;SDS011;14800;48.174;9.798;2024-02-23T06:11:56;0.57;;;0.20;;
27313;SDS011;14800;48.174;9.798;2024-02-23T06:14:22;1.95;;;0.30;;
27313;SDS011;14800;48.174;9.798;2024-02-23T06:16:48;1.13;;;0.30;;
27313;SDS011;14800;48.174;9.798;2024-02-23T06:19:14;0.35;;;0.20;;
27313;SDS011;14800;48.174;9.798;2024-02-23T06:21:40;0.73;;;0.25;;
27313;SDS011;14800;48.174;9.798;2024-02-23T06:24:06;0.65;;;0.10;;
27313;SDS011;14800;48.174;9.798;2024-02-23T06:26:35;1.02;;;0.30;;
27313;SDS011;14800;48.174;9.798;2024-02-23T06:29:00;0.50;;;0.20;;
27313;SDS011;14800;48.174;9.798;2024-02-23T06:31:26;1.30;;;0.25;;
27313;SDS011;14800;48.174;9.798;2024-02-23T06:33:51;2.63;;;0.25;;
27313;SDS011;14800;48.174;9.798;2024-02-23T06:36:17;1.60;;;0.43;;
27313;SDS011;14800;48.174;9.798;2024-02-23T06:38:44;1.95;;;0.40;;
27313;SDS011;14800;48.174;9.798;2024-02-23T06:41:10;0.95;;;0.20;;
27313;SDS011;14800;48.174;9.798;2024-02-23T06:43:36;2.85;;;0.50;;
27313;SDS011;14800;48.174;9.798;2024-02-23T06:46:06;2.42;;;0.30;;
27313;SDS011;14800;48.174;9.798;2024-02-23T06:48:33;1.50;;;0.45;;
27313;SDS011;14800;48.174;9.798;2024-02-23T06:50:59;6.22;;;0.45;;
27313;SDS011;14800;48.174;9.798;2024-02-23T06:53:24;1.67;;;0.30;;
27313;SDS011;14800;48.174;9.798;2024-02-23T06:55:50;0.77;;;0.30;;
27313;SDS011;14800;48.174;9.798;2024-02-23T06:58:16;4.55;;;0.20;;
27313;SDS011;14800;48.174;9.798;2024-02-23T07:00:43;2.58;;;0.30;;
27313;SDS011;14800;48.174;9.798;2024-02-23T07:03:09;1.20;;;0.20;;
27313;SDS011;14800;48.174;9.798;2024-02-23T07:05:34;1.02;;;0.30;;
27313;SDS011;14800;48.174;9.798;2024-02-23T07:08:00;2.95;;;0.98;;
27313;SDS011;14800;48.174;9.798;2024-02-23T07:10:26;1.00;;;0.60;;
27313;SDS011;14800;48.174;9.798;2024-02-23T07:12:52;1.70;;;0.57;;
27313;SDS011;14800;48.174;9.798;2024-02-23T07:15:19;3.92;;;0.70;;
27313;SDS011;14800;48.174;9.798;2024-02-23T07:17:47;3.20;;;0.75;;
27313;SDS011;14800;48.174;9.798;2024-02-23T07:20:13;4.07;;;2.00;;
27313;SDS011;14800;48.174;9.798;2024-02-23T07:22:39;2.35;;;1.40;;
27313;SDS011;14800;48.174;9.798;2024-02-23T07:25:08;2.15;;;0.40;;
27313;SDS011;14800;48.174;9.798;2024-02-23T07:27:33;2.30;;;0.43;;
27313;SDS011;14800;48.174;9.798;2024-02-23T07:29:59;2.80;;;0.40;;
27313;SDS011;14800;48.174;9.798;2024-02-23T07:32:24;0.47;;;0.30;;
27313;SDS011;14800;48.174;9.798;2024-02-23T07:34:50;1.55;;;0.40;;
27313;SDS011;14800;48.174;9.798;2024-02-23T07:37:15;2.72;;;0.52;;
27313;SDS011;14800;48.174;9.798;2024-02-23T07:39:41;2.15;;;0.50;;
27313;SDS011;14800;48.174;9.798;2024-02-23T07:42:07;2.25;;;1.00;;
27313;SDS011;14800;48.174;9.798;2024-02-23T07:44:35;19.27;;;8.95;;
27313;SDS011;14800;48.174;9.798;2024-02-23T07:47:00;10.57;;;5.93;;
27313;SDS011;14800;48.174;9.798;2024-02-23T07:49:26;4.53;;;2.80;;
27313;SDS011;14800;48.174;9.798;2024-02-23T07:51:53;2.13;;;1.10;;
27313;SDS011;14800;48.174;9.798;2024-02-23T07:54:19;2.85;;;1.10;;
27313;SDS011;14800;48.174;9.798;2024-02-23T07:56:45;3.58;;;0.50;;
27313;SDS011;14800;48.174;9.798;2024-02-23T07:59:10;2.13;;;0.55;;
27313;SDS011;14800;48.174;9.798;2024-02-23T08:01:36;3.80;;;0.63;;
27313;SDS011;14800;48.174;9.798;2024-02-23T08:04:02;2.83;;;0.90;;
27313;SDS011;14800;48.174;9.798;2024-02-23T08:06:28;2.38;;;0.70;;
27313;SDS011;14800;48.174;9.798;2024-02-23T08:08:54;2.15;;;1.00;;
27313;SDS011;14800;48.174;9.798;2024-02-23T08:11:20;1.13;;;0.47;;
27313;SDS011;14800;48.174;9.798;2024-02-23T08:13:46;3.33;;;0.50;;
27313;SDS011;14800;48.174;9.798;2024-02-23T08:16:11;1.73;;;0.40;;
27313;SDS011;14800;48.174;9.798;2024-02-23T08:18:37;3.50;;;0.57;;
27313;SDS011;14800;48.174;9.798;2024-02-23T08:21:02;1.92;;;0.50;;
27313;SDS011;14800;48.174;9.798;2024-02-23T08:23:30;5.13;;;0.50;;
27313;SDS011;14800;48.174;9.798;2024-02-23T08:25:56;3.08;;;0.40;;
27313;SDS011;14800;48.174;9.798;2024-02-23T08:28:23;4.35;;;0.70;;
27313;SDS011;14800;48.174;9.798;2024-02-23T08:30:49;2.97;;;0.77;;
27313;SDS011;14800;48.174;9.798;2024-02-23T08:33:14;1.73;;;0.60;;
27313;SDS011;14800;48.174;9.798;2024-02-23T08:35:40;1.80;;;0.63;;
27313;SDS011;14800;48.174;9.798;2024-02-23T08:38:06;2.60;;;0.50;;
27313;SDS011;14800;48.174;9.798;2024-02-23T08:40:32;1.30;;;0.43;;
27313;SDS011;14800;48.174;9.798;2024-02-23T08:42:57;2.22;;;0.40;;
27313;SDS011;14800;48.174;9.798;2024-02-23T08:45:23;1.58;;;0.60;;
27313;SDS011;14800;48.174;9.798;2024-02-23T08:47:48;3.33;;;0.70;;
27313;SDS011;14800;48.174;9.798;2024-02-23T08:50:14;2.72;;;0.70;;
27313;SDS011;14800;48.174;9.798;2024-02-23T08:52:40;1.35;;;0.55;;
27313;SDS011;14800;48.174;9.798;2024-02-23T08:55:05;2.63;;;0.50;;
27313;SDS011;14800;48.174;9.798;2024-02-23T08:57:31;4.65;;;0.77;;
27313;SDS011;14800;48.174;9.798;2024-02-23T08:59:57;3.25;;;0.57;;
27313;SDS011;14800;48.174;9.798;2024-02-23T09:02:23;1.70;;;0.68;;
27313;SDS011;14800;48.174;9.798;2024-02-23T09:04:49;2.92;;;0.40;;
27313;SDS011;14800;48.174;9.798;2024-02-23T09:07:14;4.00;;;0.70;;
27313;SDS011;14800;48.174;9.798;2024-02-23T09:09:40;2.63;;;0.70;;
27313;SDS011;14800;48.174;9.798;2024-02-23T09:12:06;2.58;;;0.45;;
27313;SDS011;14800;48.174;9.798;2024-02-23T09:14:35;1.60;;;0.50;;
27313;SDS011;14800;48.174;9.798;2024-02-23T09:17:02;2.78;;;0.50;;
27313;SDS011;14800;48.174;9.798;2024-02-23T09:19:29;3.08;;;0.52;;
27313;SDS011;14800;48.174;9.798;2024-02-23T09:21:55;3.50;;;0.93;;
27313;SDS011;14800;48.174;9.798;2024-02-23T09:24:21;3.78;;;0.80;;
27313;SDS011;14800;48.174;9.798;2024-02-23T09:26:46;4.43;;;1.00;;
27313;SDS011;14800;48.174;9.798;2024-02-23T09:29:12;4.45;;;0.88;;
27313;SDS011;14800;48.174;9.798;2024-02-23T09:31:38;3.60;;;0.93;;
27313;SDS011;14800;48.174;9.798;2024-02-23T09:34:04;4.65;;;0.80;;
27313;SDS011;14800;48.174;9.798;2024-02-23T09:36:29;3.83;;;0.68;;
27313;SDS011;14800;48.174;9.798;2024-02-23T09:38:55;5.10;;;1.10;;
27313;SDS011;14800;48.174;9.798;2024-02-23T09:41:21;5.25;;;0.80;;
27313;SDS011;14800;48.174;9.798;2024-02-23T09:43:48;4.80;;;0.60;;
27313;SDS011;14800;48.174;9.798;2024-02-23T09:46:17;5.07;;;0.70;;
27313;SDS011;14800;48.174;9.798;2024-02-23T09:48:43;4.63;;;0.60;;
27313;SDS011;14800;48.174;9.798;2024-02-23T09:51:10;3.33;;;0.50;;
27313;SDS011;14800;48.174;9.798;2024-02-23T09:53:37;4.65;;;0.70;;
27313;SDS011;14800;48.174;9.798;2024-02-23T09:56:03;2.92;;;0.60;;
27313;SDS011;14800;48.174;9.798;2024-02-23T09:58:33;3.00;;;1.08;;
27313;SDS011;14800;48.174;9.798;2024-02-23T10:01:01;5.53;;;1.17;;
27313;SDS011;14800;48.174;9.798;2024-02-23T10:03:28;10.40;;;5.88;;
27313;SDS011;14800;48.174;9.798;2024-02-23T10:05:55;5.50;;;1.25;;
27313;SDS011;14800;48.174;9.798;2024-02-23T10:08:22;8.65;;;1.55;;
27313;SDS011;14800;48.174;9.798;2024-02-23T10:10:47;3.05;;;1.27;;
27313;SDS011;14800;48.174;9.798;2024-02-23T10:13:21;3.88;;;1.25;;
27313;SDS011;14800;48.174;9.798;2024-02-23T10:15:51;4.45;;;2.40;;
27313;SDS011;14800;48.174;9.798;2024-02-23T10:18:17;4.05;;;1.60;;
27313;SDS011;14800;48.174;9.798;2024-02-23T10:20:43;5.45;;;1.52;;
27313;SDS011;14800;48.174;9.798;2024-02-23T10:23:09;4.68;;;1.48;;
27313;SDS011;14800;48.174;9.798;2024-02-23T10:25:35;4.65;;;1.45;;
27313;SDS011;14800;48.174;9.798;2024-02-23T10:28:02;3.72;;;0.88;;
27313;SDS011;14800;48.174;9.798;2024-02-23T10:30:28;3.35;;;1.20;;
27313;SDS011;14800;48.174;9.798;2024-02-23T10:32:55;4.75;;;0.55;;
27313;SDS011;14800;48.174;9.798;2024-02-23T10:35:21;4.63;;;0.90;;
27313;SDS011;14800;48.174;9.798;2024-02-23T10:37:50;7.72;;;0.88;;
27313;SDS011;14800;48.174;9.798;2024-02-23T10:40:17;4.70;;;1.10;;
27313;SDS011;14800;48.174;9.798;2024-02-23T10:42:44;7.18;;;1.50;;
27313;SDS011;14800;48.174;9.798;2024-02-23T10:45:16;3.38;;;1.20;;
27313;SDS011;14800;48.174;9.798;2024-02-23T10:47:43;3.63;;;1.00;;
27313;SDS011;14800;48.174;9.798;2024-02-23T10:50:09;4.93;;;1.20;;
27313;SDS011;14800;48.174;9.798;2024-02-23T10:52:35;4.68;;;1.50;;
27313;SDS011;14800;48.174;9.798;2024-02-23T10:55:01;2.88;;;1.10;;
27313;SDS011;14800;48.174;9.798;2024-02-23T10:57:29;2.30;;;1.10;;
27313;SDS011;14800;48.174;9.798;2024-02-23T10:59:57;4.05;;;0.98;;
27313;SDS011;14800;48.174;9.798;2024-02-23T11:02:23;4.10;;;0.60;;
27313;SDS011;14800;48.174;9.798;2024-02-23T11:04:50;3.45;;;0.80;;
27313;SDS011;14800;48.174;9.798;2024-02-23T11:07:18;4.07;;;0.82;;
27313;SDS011;14800;48.174;9.798;2024-02-23T11:09:59;2.47;;;0.63;;
27313;SDS011;14800;48.174;9.798;2024-02-23T11:12:26;3.45;;;0.70;;
27313;SDS011;14800;48.174;9.798;2024-02-23T11:14:57;3.50;;;0.77;;
27313;SDS011;14800;48.174;9.798;2024-02-23T11:17:26;4.07;;;1.30;;
27313;SDS011;14800;48.174;9.798;2024-02-23T11:19:54;5.05;;;1.00;;
27313;SDS011;14800;48.174;9.798;2024-02-23T11:22:27;5.95;;;0.70;;
27313;SDS011;14800;48.174;9.798;2024-02-23T11:27:36;4.30;;;0.93;;
27313;SDS011;14800;48.174;9.798;2024-02-23T11:30:04;7.75;;;0.85;;
27313;SDS011;14800;48.174;9.798;2024-02-23T11:32:38;3.45;;;1.00;;
27313;SDS011;14800;48.174;9.798;2024-02-23T11:35:12;1.45;;;0.80;;
27313;SDS011;14800;48.174;9.798;2024-02-23T11:40:26;3.05;;;1.25;;
27313;SDS011;14800;48.174;9.798;2024-02-23T11:42:54;2.80;;;0.60;;
27313;SDS011;14800;48.174;9.798;2024-02-23T11:45:20;3.28;;;0.77;;
27313;SDS011;14800;48.174;9.798;2024-02-23T11:47:46;2.20;;;0.65;;
27313;SDS011;14800;48.174;9.798;2024-02-23T11:50:11;2.63;;;0.50;;
27313;SDS011;14800;48.174;9.798;2024-02-23T11:52:38;3.17;;;0.55;;
27313;SDS011;14800;48.174;9.798;2024-02-23T11:55:04;3.88;;;0.90;;
27313;SDS011;14800;48.174;9.798;2024-02-23T11:57:31;2.15;;;0.60;;
27313;SDS011;14800;48.174;9.798;2024-02-23T11:59:57;2.25;;;0.70;;
27313;SDS011;14800;48.174;9.798;2024-02-23T12:02:23;5.45;;;0.80;;
27313;SDS011;14800;48.174;9.798;2024-02-23T12:04:49;2.30;;;0.77;;
27313;SDS011;14800;48.174;9.798;2024-02-23T12:07:15;2.30;;;0.70;;
27313;SDS011;14800;48.174;9.798;2024-02-23T12:09:41;5.18;;;0.95;;
27313;SDS011;14800;48.174;9.798;2024-02-23T12:12:07;3.70;;;1.23;;
27313;SDS011;14800;48.174;9.798;2024-02-23T12:14:37;2.30;;;0.82;;
27313;SDS011;14800;48.174;9.798;2024-02-23T12:17:04;3.30;;;1.00;;
27313;SDS011;14800;48.174;9.798;2024-02-23T12:19:31;2.00;;;0.57;;
27313;SDS011;14800;48.174;9.798;2024-02-23T12:22:00;2.70;;;1.13;;
27313;SDS011;14800;48.174;9.798;2024-02-23T12:24:26;2.75;;;0.80;;
27313;SDS011;14800;48.174;9.798;2024-02-23T12:26:56;3.17;;;0.90;;
27313;SDS011;14800;48.174;9.798;2024-02-23T12:29:21;2.97;;;0.80;;
27313;SDS011;14800;48.174;9.798;2024-02-23T12:31:47;2.38;;;0.77;;
27313;SDS011;14800;48.174;9.798;2024-02-23T12:34:13;4.00;;;0.80;;
27313;SDS011;14800;48.174;9.798;2024-02-23T12:36:39;2.25;;;0.80;;
27313;SDS011;14800;48.174;9.798;2024-02-23T12:39:05;2.20;;;1.27;;
27313;SDS011;14800;48.174;9.798;2024-02-23T12:41:31;3.92;;;1.70;;
27313;SDS011;14800;48.174;9.798;2024-02-23T12:43:57;12.32;;;5.53;;
27313;SDS011;14800;48.174;9.798;2024-02-23T12:46:23;14.75;;;6.45;;
27313;SDS011;14800;48.174;9.798;2024-02-23T12:48:49;9.50;;;4.47;;
27313;SDS011;14800;48.174;9.798;2024-02-23T12:51:15;5.15;;;2.72;;
27313;SDS011;14800;48.174;9.798;2024-02-23T12:53:41;4.13;;;1.70;;
27313;SDS011;14800;48.174;9.798;2024-02-23T12:56:11;4.32;;;1.70;;
27313;SDS011;14800;48.174;9.798;2024-02-23T12:58:41;4.22;;;1.50;;
27313;SDS011;14800;48.174;9.798;2024-02-23T13:01:09;2.50;;;0.82;;
27313;SDS011;14800;48.174;9.798;2024-02-23T13:03:35;1.85;;;0.70;;
27313;SDS011;14800;48.174;9.798;2024-02-23T13:06:02;1.23;;;0.60;;
27313;SDS011;14800;48.174;9.798;2024-02-23T13:08:29;4.50;;;0.98;;
27313;SDS011;14800;48.174;9.798;2024-02-23T13:10:55;2.65;;;0.80;;
27313;SDS011;14800;48.174;9.798;2024-02-23T13:13:22;4.28;;;1.00;;
27313;SDS011;14800;48.174;9.798;2024-02-23T13:15:48;3.30;;;1.88;;
27313;SDS011;14800;48.174;9.798;2024-02-23T13:18:16;3.35;;;1.70;;
27313;SDS011;14800;48.174;9.798;2024-02-23T13:20:42;3.28;;;1.30;;
27313;SDS011;14800;48.174;9.798;2024-02-23T13:23:08;5.28;;;1.45;;
27313;SDS011;14800;48.174;9.798;2024-02-23T13:25:38;10.02;;;5.95;;
27313;SDS011;14800;48.174;9.798;2024-02-23T13:28:04;6.78;;;4.35;;
27313;SDS011;14800;48.174;9.798;2024-02-23T13:30:31;6.55;;;3.35;;
27313;SDS011;14800;48.174;9.798;2024-02-23T13:32:57;2.72;;;1.90;;
27313;SDS011;14800;48.174;9.798;2024-02-23T13:35:22;4.68;;;1.33;;
27313;SDS011;14800;48.174;9.798;2024-02-23T13:37:48;2.38;;;1.20;;
27313;SDS011;14800;48.174;9.798;2024-02-23T13:40:14;3.08;;;1.98;;
27313;SDS011;14800;48.174;9.798;2024-02-23T13:42:39;2.60;;;1.10;;
27313;SDS011;14800;48.174;9.798;2024-02-23T13:45:08;1.40;;;0.70;;
27313;SDS011;14800;48.174;9.798;2024-02-23T13:47:35;3.72;;;1.10;;
27313;SDS011;14800;48.174;9.798;2024-02-23T13:50:01;4.90;;;1.60;;
27313;SDS011;14800;48.174;9.798;2024-02-23T13:52:27;1.58;;;1.05;;
27313;SDS011;14800;48.174;9.798;2024-02-23T13:54:53;2.78;;;0.80;;
27313;SDS011;14800;48.174;9.798;2024-02-23T13:57:18;4.63;;;1.25;;
27313;SDS011;14800;48.174;9.798;2024-02-23T13:59:44;3.00;;;1.20;;
27313;SDS011;14800;48.174;9.798;2024-02-23T14:02:09;3.10;;;1.13;;
27313;SDS011;14800;48.174;9.798;2024-02-23T14:04:35;2.28;;;1.13;;
27313;SDS011;14800;48.174;9.798;2024-02-23T14:07:01;4.82;;;1.02;;
27313;SDS011;14800;48.174;9.798;2024-02-23T14:09:26;4.43;;;0.90;;
27313;SDS011;14800;48.174;9.798;2024-02-23T14:11:52;2.50;;;0.80;;
27313;SDS011;14800;48.174;9.798;2024-02-23T14:14:18;2.08;;;0.80;;
27313;SDS011;14800;48.174;9.798;2024-02-23T14:16:45;2.17;;;0.85;;
27313;SDS011;14800;48.174;9.798;2024-02-23T14:19:11;2.00;;;0.90;;
27313;SDS011;14800;48.174;9.798;2024-02-23T14:21:36;1.10;;;0.70;;
27313;SDS011;14800;48.174;9.798;2024-02-23T14:24:02;2.97;;;1.23;;
27313;SDS011;14800;48.174;9.798;2024-02-23T14:26:29;3.83;;;1.58;;
27313;SDS011;14800;48.174;9.798;2024-02-23T14:28:54;2.65;;;0.90;;
27313;SDS011;14800;48.174;9.798;2024-02-23T14:31:20;2.85;;;0.98;;
27313;SDS011;14800;48.174;9.798;2024-02-23T14:33:45;1.83;;;0.52;;
27313;SDS011;14800;48.174;9.798;2024-02-23T14:36:11;2.95;;;0.70;;
27313;SDS011;14800;48.174;9.798;2024-02-23T14:38:37;1.52;;;0.70;;
27313;SDS011;14800;48.174;9.798;2024-02-23T14:41:02;5.10;;;0.80;;
27313;SDS011;14800;48.174;9.798;2024-02-23T14:43:28;3.30;;;0.88;;
27313;SDS011;14800;48.174;9.798;2024-02-23T14:45:56;3.90;;;0.70;;
27313;SDS011;14800;48.174;9.798;2024-02-23T14:48:22;3.72;;;0.50;;